createdAt,value
2022-10-07T00:01:04.708Z,16.40
2022-10-07T00:03:31.754Z,16.40
2022-10-07T00:06:01.588Z,16.30
2022-10-07T00:08:28.541Z,16.30
2022-10-07T00:10:55.561Z,16.30
2022-10-07T00:13:22.358Z,16.30
2022-10-07T00:15:49.299Z,16.20
2022-10-07T00:18:16.076Z,16.20
2022-10-07T00:20:42.914Z,16.20
2022-10-07T00:23:09.769Z,16.30
2022-10-07T00:25:39.554Z,16.20
2022-10-07T00:28:06.648Z,16.20
2022-10-07T00:30:33.571Z,16.20
2022-10-07T00:33:00.533Z,16.20
2022-10-07T00:35:27.395Z,16.20
2022-10-07T00:37:54.272Z,16.20
2022-10-07T00:40:21.094Z,16.20
2022-10-07T00:42:47.957Z,16.20
2022-10-07T00:45:16.556Z,16.20
2022-10-07T00:47:48.463Z,16.10
2022-10-07T00:50:26.042Z,16.10
2022-10-07T00:52:56.434Z,16.10
2022-10-07T00:55:25.055Z,16.10
2022-10-07T00:57:53.098Z,16.00
2022-10-07T01:00:23.425Z,16.00
2022-10-07T01:02:50.999Z,16.00
2022-10-07T01:05:18.309Z,16.00
2022-10-07T01:07:46.844Z,16.00
2022-10-07T01:10:17.155Z,16.00
2022-10-07T01:12:48.106Z,16.00
2022-10-07T01:15:34.874Z,16.00
2022-10-07T01:18:17.808Z,15.90
2022-10-07T01:20:50.345Z,15.90
2022-10-07T01:23:17.175Z,15.90
2022-10-07T01:25:47.027Z,15.90
2022-10-07T01:28:16.364Z,15.90
2022-10-07T01:30:46.764Z,15.90
2022-10-07T01:33:16.190Z,15.90
2022-10-07T01:35:45.382Z,15.90
2022-10-07T01:38:14.091Z,15.80
2022-10-07T01:40:44.502Z,15.80
2022-10-07T01:43:14.267Z,15.80
2022-10-07T01:45:41.311Z,15.80
2022-10-07T01:48:08.506Z,15.80
2022-10-07T01:50:35.770Z,15.80
2022-10-07T01:53:12.932Z,15.80
2022-10-07T01:55:46.873Z,15.80
2022-10-07T01:58:17.151Z,15.80
2022-10-07T02:00:48.035Z,15.70
2022-10-07T02:03:21.512Z,15.70
2022-10-07T02:05:53.976Z,15.70
2022-10-07T02:08:30.228Z,15.70
2022-10-07T02:11:34.057Z,15.70
2022-10-07T02:14:09.000Z,15.70
2022-10-07T02:17:10.578Z,15.70
2022-10-07T02:19:45.071Z,15.70
2022-10-07T02:22:13.355Z,15.70
2022-10-07T02:24:40.619Z,15.70
2022-10-07T02:27:11.270Z,15.70
2022-10-07T02:29:40.574Z,15.70
2022-10-07T02:32:10.073Z,15.70
2022-10-07T02:34:38.459Z,15.60
2022-10-07T02:37:08.119Z,15.60
2022-10-07T02:39:35.305Z,15.60
2022-10-07T02:42:09.974Z,15.60
2022-10-07T02:44:46.996Z,15.60
2022-10-07T02:47:22.225Z,15.60
2022-10-07T02:49:53.225Z,15.50
2022-10-07T02:52:21.331Z,15.50
2022-10-07T02:54:57.820Z,15.50
2022-10-07T02:57:26.324Z,15.40
2022-10-07T02:59:53.837Z,15.40
2022-10-07T03:02:28.068Z,15.40
2022-10-07T03:04:57.555Z,15.40
2022-10-07T03:07:25.830Z,15.40
2022-10-07T03:09:53.147Z,15.40
2022-10-07T03:12:20.059Z,15.30
2022-10-07T03:14:49.943Z,15.30
2022-10-07T03:17:18.271Z,15.30
2022-10-07T03:19:45.526Z,15.30
2022-10-07T03:22:12.486Z,15.30
2022-10-07T03:24:41.528Z,15.30
2022-10-07T03:27:09.124Z,15.30
2022-10-07T03:29:38.378Z,15.30
2022-10-07T03:32:05.941Z,15.20
2022-10-07T03:34:33.859Z,15.30
2022-10-07T03:37:01.369Z,15.30
2022-10-07T03:39:28.740Z,15.30
2022-10-07T03:41:57.491Z,15.30
2022-10-07T03:44:25.185Z,15.20
2022-10-07T03:46:53.958Z,15.20
2022-10-07T03:49:24.471Z,15.20
2022-10-07T03:51:51.337Z,15.20
2022-10-07T03:54:19.283Z,15.20
2022-10-07T03:56:46.118Z,15.20
2022-10-07T03:59:15.449Z,15.20
2022-10-07T04:01:42.842Z,15.10
2022-10-07T04:04:09.807Z,15.10
2022-10-07T04:06:38.921Z,15.10
2022-10-07T04:09:12.343Z,15.10
2022-10-07T04:11:41.562Z,15.10
2022-10-07T04:14:09.124Z,15.10
2022-10-07T04:16:38.442Z,15.10
2022-10-07T04:19:07.996Z,15.10
2022-10-07T04:21:34.900Z,15.10
2022-10-07T04:24:01.795Z,15.10
2022-10-07T04:26:28.696Z,15.10
2022-10-07T04:28:56.256Z,15.10
2022-10-07T04:31:23.949Z,15.10
2022-10-07T04:34:01.902Z,15.10
2022-10-07T04:36:33.798Z,15.10
2022-10-07T04:39:07.067Z,15.10
2022-10-07T04:41:36.736Z,15.00
2022-10-07T04:44:07.430Z,15.10
2022-10-07T04:46:41.011Z,15.10
2022-10-07T04:49:11.908Z,15.10
2022-10-07T04:51:38.755Z,15.10
2022-10-07T04:54:06.462Z,15.10
2022-10-07T04:56:43.342Z,15.10
2022-10-07T04:59:12.861Z,15.10
2022-10-07T05:01:41.099Z,15.10
2022-10-07T05:04:11.610Z,15.10
2022-10-07T05:06:38.456Z,15.00
2022-10-07T05:09:05.857Z,15.10
2022-10-07T05:11:37.843Z,15.00
2022-10-07T05:14:09.497Z,15.00
2022-10-07T05:16:37.130Z,15.00
2022-10-07T05:19:05.386Z,15.00
2022-10-07T05:21:33.513Z,15.10
2022-10-07T05:24:01.143Z,15.10
2022-10-07T05:26:33.991Z,15.10
2022-10-07T05:29:03.035Z,15.10
2022-10-07T05:31:37.804Z,15.10
2022-10-07T05:34:06.082Z,15.20
2022-10-07T05:36:33.992Z,15.20
2022-10-07T05:39:02.175Z,15.20
2022-10-07T05:41:45.389Z,15.20
2022-10-07T05:44:15.117Z,15.30
2022-10-07T05:46:42.653Z,15.30
2022-10-07T05:49:10.434Z,15.30
2022-10-07T05:51:37.285Z,15.30
2022-10-07T05:54:05.385Z,15.40
2022-10-07T05:56:37.137Z,15.40
2022-10-07T05:59:04.661Z,15.50
2022-10-07T06:01:31.849Z,15.50
2022-10-07T06:04:03.224Z,15.60
2022-10-07T06:06:34.338Z,15.60
2022-10-07T06:09:22.135Z,15.90
2022-10-07T06:12:07.627Z,16.90
2022-10-07T06:14:36.434Z,18.30
2022-10-07T06:17:04.801Z,19.20
2022-10-07T06:19:31.993Z,19.70
2022-10-07T06:22:01.547Z,19.90
2022-10-07T06:24:28.386Z,19.80
2022-10-07T06:26:56.048Z,19.80
2022-10-07T06:29:24.194Z,19.70
2022-10-07T06:31:51.268Z,19.80
2022-10-07T06:34:19.265Z,19.90
2022-10-07T06:36:46.627Z,20.00
2022-10-07T06:39:16.188Z,20.30
2022-10-07T06:41:43.781Z,20.60
2022-10-07T06:44:27.199Z,20.90
2022-10-07T06:46:55.349Z,21.20
2022-10-07T06:49:22.612Z,21.60
2022-10-07T06:51:50.449Z,22.00
2022-10-07T06:54:17.621Z,22.30
2022-10-07T06:56:44.911Z,22.60
2022-10-07T06:59:11.784Z,23.20
2022-10-07T07:01:47.635Z,23.80
2022-10-07T07:04:14.687Z,24.60
2022-10-07T07:06:41.733Z,25.50
2022-10-07T07:09:09.511Z,26.50
2022-10-07T07:11:43.352Z,27.50
2022-10-07T07:14:19.811Z,28.50
2022-10-07T07:16:53.933Z,29.40
2022-10-07T07:19:23.412Z,30.10
2022-10-07T07:21:51.442Z,30.80
2022-10-07T07:24:20.896Z,31.30
2022-10-07T07:26:48.418Z,31.80
2022-10-07T07:29:16.564Z,32.20
2022-10-07T07:32:00.097Z,32.60
2022-10-07T07:34:30.233Z,32.90
2022-10-07T07:36:57.427Z,33.10
2022-10-07T07:39:29.611Z,33.20
2022-10-07T07:42:04.445Z,33.40
2022-10-07T07:44:34.750Z,33.50
2022-10-07T07:47:03.572Z,33.50
2022-10-07T07:49:32.291Z,33.60
2022-10-07T07:51:59.967Z,33.70
2022-10-07T07:54:31.244Z,33.80
2022-10-07T07:56:58.195Z,33.70
2022-10-07T07:59:28.601Z,33.60
2022-10-07T08:01:57.573Z,33.40
2022-10-07T08:04:25.012Z,33.00
2022-10-07T08:06:52.463Z,32.80
2022-10-07T08:09:20.015Z,32.50
2022-10-07T08:11:48.293Z,32.20
2022-10-07T08:14:17.461Z,32.20
2022-10-07T08:16:47.350Z,32.40
2022-10-07T08:19:15.358Z,32.80
2022-10-07T08:21:42.366Z,33.20
2022-10-07T08:24:14.487Z,33.80
2022-10-07T08:26:41.368Z,34.50
2022-10-07T08:29:11.305Z,35.20
2022-10-07T08:31:38.532Z,36.00
2022-10-07T08:34:06.514Z,36.50
2022-10-07T08:36:33.763Z,37.10
2022-10-07T08:39:01.318Z,37.90
2022-10-07T08:41:34.335Z,38.50
2022-10-07T08:44:27.510Z,39.10
2022-10-07T08:46:57.620Z,39.80
2022-10-07T08:49:32.744Z,40.10
2022-10-07T08:52:05.848Z,40.20
2022-10-07T08:54:33.430Z,40.10
2022-10-07T08:57:10.576Z,39.90
2022-10-07T08:59:39.123Z,40.00
2022-10-07T09:02:24.986Z,40.20
2022-10-07T09:05:00.561Z,40.40
2022-10-07T09:07:39.148Z,40.60
2022-10-07T09:10:08.924Z,40.70
2022-10-07T09:12:35.717Z,40.80
2022-10-07T09:15:03.623Z,40.60
2022-10-07T09:17:36.545Z,40.30
2022-10-07T09:20:10.799Z,40.10
2022-10-07T09:22:38.907Z,40.20
2022-10-07T09:25:11.655Z,40.20
2022-10-07T09:27:38.559Z,40.10
2022-10-07T09:30:06.577Z,40.00
2022-10-07T09:32:35.642Z,40.00
2022-10-07T09:35:06.087Z,40.10
2022-10-07T09:37:33.882Z,40.10
2022-10-07T09:40:20.946Z,40.30
2022-10-07T09:42:49.671Z,40.60
2022-10-07T09:45:19.379Z,40.50
2022-10-07T09:47:50.855Z,40.40
2022-10-07T09:50:37.138Z,40.70
2022-10-07T09:53:05.161Z,41.10
2022-10-07T09:55:41.845Z,41.50
2022-10-07T09:58:28.929Z,41.20
2022-10-07T10:00:57.239Z,40.20
2022-10-07T10:03:31.264Z,39.70
2022-10-07T10:05:59.430Z,39.80
2022-10-07T10:08:26.189Z,40.30
2022-10-07T10:10:59.813Z,41.10
2022-10-07T10:13:28.313Z,41.70
2022-10-07T10:15:55.470Z,42.00
2022-10-07T10:18:34.291Z,41.90
2022-10-07T10:21:16.260Z,41.50
2022-10-07T10:23:47.069Z,41.30
2022-10-07T10:26:29.578Z,41.30
2022-10-07T10:29:02.631Z,41.50
2022-10-07T10:31:40.756Z,41.50
2022-10-07T10:34:29.120Z,41.50
2022-10-07T10:37:22.055Z,41.50
2022-10-07T10:39:57.444Z,41.70
2022-10-07T10:42:48.760Z,41.30
2022-10-07T10:45:24.344Z,41.10
2022-10-07T10:47:56.822Z,40.70
2022-10-07T10:50:23.761Z,40.50
2022-10-07T10:52:59.752Z,40.20
2022-10-07T10:55:33.254Z,40.10
2022-10-07T10:58:11.758Z,40.20
2022-10-07T11:00:42.011Z,40.80
2022-10-07T11:03:27.679Z,40.90
2022-10-07T11:05:55.919Z,41.10
2022-10-07T11:08:35.733Z,41.60
2022-10-07T11:11:07.040Z,41.80
2022-10-07T11:13:33.876Z,42.40
2022-10-07T11:16:18.068Z,43.00
2022-10-07T11:18:49.333Z,43.40
2022-10-07T11:21:27.132Z,43.00
2022-10-07T11:23:53.979Z,42.30
2022-10-07T11:26:23.964Z,41.80
2022-10-07T11:28:51.203Z,42.00
2022-10-07T11:31:18.038Z,42.10
2022-10-07T11:33:53.124Z,42.10
2022-10-07T11:36:30.790Z,42.40
2022-10-07T11:38:57.619Z,42.70
2022-10-07T11:41:30.681Z,42.10
2022-10-07T11:43:59.982Z,41.20
2022-10-07T11:46:36.210Z,40.90
2022-10-07T11:49:03.018Z,40.50
2022-10-07T11:51:35.187Z,40.40
2022-10-07T11:54:03.089Z,40.40
2022-10-07T11:56:37.087Z,40.20
2022-10-07T11:59:06.051Z,40.30
2022-10-07T12:01:36.325Z,40.30
2022-10-07T12:04:35.781Z,40.30
2022-10-07T12:07:21.269Z,40.50
2022-10-07T12:10:00.826Z,40.70
2022-10-07T12:12:47.477Z,41.30
2022-10-07T12:15:26.704Z,41.10
2022-10-07T12:18:05.373Z,40.80
2022-10-07T12:20:34.990Z,40.90
2022-10-07T12:23:17.013Z,41.20
2022-10-07T12:26:09.928Z,41.10
2022-10-07T12:28:40.669Z,40.10
2022-10-07T12:31:17.881Z,39.70
2022-10-07T12:33:47.498Z,39.60
2022-10-07T12:36:23.887Z,39.30
2022-10-07T12:38:57.377Z,38.80
2022-10-07T12:41:25.332Z,38.60
2022-10-07T12:44:14.823Z,39.00
2022-10-07T12:46:50.892Z,39.40
2022-10-07T12:49:17.662Z,39.10
2022-10-07T12:51:44.596Z,38.90
2022-10-07T12:54:16.095Z,39.00
2022-10-07T12:56:44.417Z,39.50
2022-10-07T12:59:49.749Z,40.20
2022-10-07T13:02:32.054Z,40.50
2022-10-07T13:05:17.848Z,40.10
2022-10-07T13:07:57.262Z,39.20
2022-10-07T13:10:30.155Z,38.40
2022-10-07T13:13:00.717Z,38.00
2022-10-07T13:15:31.412Z,37.80
2022-10-07T13:17:58.222Z,38.00
2022-10-07T13:20:35.184Z,37.80
2022-10-07T13:23:07.128Z,37.60
2022-10-07T13:25:34.129Z,37.90
2022-10-07T13:28:01.039Z,38.40
2022-10-07T13:30:34.153Z,38.60
2022-10-07T13:33:12.887Z,38.90
2022-10-07T13:35:39.991Z,39.10
2022-10-07T13:38:06.904Z,38.80
2022-10-07T13:40:36.612Z,38.90
2022-10-07T13:43:07.052Z,39.00
2022-10-07T13:45:45.220Z,38.80
2022-10-07T13:48:20.210Z,38.40
2022-10-07T13:50:49.441Z,38.00
2022-10-07T13:53:31.679Z,37.30
2022-10-07T13:56:16.088Z,36.80
2022-10-07T13:58:43.336Z,36.60
2022-10-07T14:01:10.321Z,36.70
2022-10-07T14:03:57.073Z,36.60
2022-10-07T14:06:57.513Z,36.80
2022-10-07T14:09:26.429Z,36.90
2022-10-07T14:11:58.134Z,37.00
2022-10-07T14:14:27.391Z,37.10
2022-10-07T14:16:59.189Z,37.20
2022-10-07T14:19:32.385Z,36.90
2022-10-07T14:22:03.341Z,36.50
2022-10-07T14:24:30.927Z,35.60
2022-10-07T14:26:57.800Z,35.20
2022-10-07T14:29:35.343Z,35.20
2022-10-07T14:32:28.158Z,35.30
2022-10-07T14:35:13.631Z,35.30
2022-10-07T14:37:40.479Z,35.20
2022-10-07T14:40:23.360Z,34.90
2022-10-07T14:42:52.347Z,34.70
2022-10-07T14:45:21.002Z,34.60
2022-10-07T14:47:49.174Z,34.50
2022-10-07T14:50:18.836Z,34.60
2022-10-07T14:52:52.824Z,34.70
2022-10-07T14:55:24.609Z,34.60
2022-10-07T14:57:51.433Z,34.60
2022-10-07T15:00:22.241Z,34.50
2022-10-07T15:02:53.173Z,34.20
2022-10-07T15:05:20.198Z,33.80
2022-10-07T15:07:47.083Z,33.60
2022-10-07T15:10:15.967Z,33.50
2022-10-07T15:12:44.365Z,33.40
2022-10-07T15:15:12.179Z,33.20
2022-10-07T15:17:39.761Z,33.00
2022-10-07T15:20:07.460Z,32.80
2022-10-07T15:22:34.322Z,32.60
2022-10-07T15:25:02.309Z,32.40
2022-10-07T15:27:29.620Z,32.00
2022-10-07T15:29:56.458Z,31.30
2022-10-07T15:32:23.927Z,30.40
2022-10-07T15:34:53.806Z,29.50
2022-10-07T15:37:21.081Z,28.70
2022-10-07T15:39:47.995Z,28.00
2022-10-07T15:42:15.595Z,27.40
2022-10-07T15:44:44.344Z,26.80
2022-10-07T15:47:14.470Z,26.40
2022-10-07T15:49:41.283Z,25.90
2022-10-07T15:52:09.039Z,25.60
2022-10-07T15:54:36.894Z,25.30
2022-10-07T15:57:04.203Z,25.10
2022-10-07T15:59:31.161Z,24.80
2022-10-07T16:01:58.051Z,24.60
2022-10-07T16:04:24.933Z,24.30
2022-10-07T16:06:52.131Z,24.10
2022-10-07T16:09:20.153Z,23.90
2022-10-07T16:11:47.887Z,23.70
2022-10-07T16:14:14.854Z,23.50
2022-10-07T16:16:41.782Z,23.40
2022-10-07T16:19:09.274Z,23.30
2022-10-07T16:21:37.207Z,23.10
2022-10-07T16:24:05.421Z,23.00
2022-10-07T16:26:33.982Z,22.90
2022-10-07T16:29:20.176Z,22.80
2022-10-07T16:31:48.086Z,22.70
2022-10-07T16:34:15.784Z,22.60
2022-10-07T16:36:45.870Z,22.50
2022-10-07T16:39:13.093Z,22.40
2022-10-07T16:41:42.838Z,22.30
2022-10-07T16:44:10.056Z,22.20
2022-10-07T16:46:36.991Z,22.10
2022-10-07T16:49:04.591Z,22.00
2022-10-07T16:51:35.474Z,21.80
2022-10-07T16:54:03.981Z,21.80
2022-10-07T16:56:32.999Z,21.70
2022-10-07T16:59:01.132Z,21.60
2022-10-07T17:01:29.074Z,21.50
2022-10-07T17:03:56.784Z,21.40
2022-10-07T17:06:24.403Z,21.30
2022-10-07T17:08:51.252Z,21.30
2022-10-07T17:11:31.178Z,21.20
2022-10-07T17:13:58.957Z,21.10
2022-10-07T17:16:26.752Z,21.00
2022-10-07T17:18:54.218Z,20.90
2022-10-07T17:21:21.666Z,20.90
2022-10-07T17:23:49.425Z,20.80
2022-10-07T17:26:17.423Z,20.70
2022-10-07T17:28:44.907Z,20.70
2022-10-07T17:31:13.846Z,20.60
2022-10-07T17:33:42.492Z,20.60
2022-10-07T17:36:10.966Z,20.50
2022-10-07T17:38:39.355Z,20.50
2022-10-07T17:41:14.382Z,20.40
2022-10-07T17:43:41.908Z,20.40
2022-10-07T17:46:12.770Z,20.30
2022-10-07T17:48:43.894Z,20.20
2022-10-07T17:51:11.782Z,20.20
2022-10-07T17:53:39.924Z,20.10
2022-10-07T17:56:09.866Z,20.10
2022-10-07T17:58:40.582Z,20.00
2022-10-07T18:01:08.992Z,20.00
2022-10-07T18:03:38.406Z,19.90
2022-10-07T18:06:07.054Z,19.90
2022-10-07T18:08:35.194Z,19.80
2022-10-07T18:11:02.932Z,19.80
2022-10-07T18:13:52.231Z,19.70
2022-10-07T18:16:20.497Z,19.70
2022-10-07T18:18:48.421Z,19.60
2022-10-07T18:21:15.323Z,19.60
2022-10-07T18:23:42.387Z,19.50
2022-10-07T18:26:10.291Z,19.50
2022-10-07T18:28:38.355Z,19.40
2022-10-07T18:31:10.812Z,19.40
2022-10-07T18:33:38.597Z,19.40
2022-10-07T18:36:07.077Z,19.30
2022-10-07T18:38:35.023Z,19.30
2022-10-07T18:41:05.203Z,19.20
2022-10-07T18:43:32.763Z,19.20
2022-10-07T18:46:00.479Z,19.20
2022-10-07T18:48:31.106Z,19.10
2022-10-07T18:50:59.496Z,19.10
2022-10-07T18:53:26.691Z,19.10
2022-10-07T18:55:53.575Z,19.00
2022-10-07T18:58:20.420Z,19.00
2022-10-07T19:00:47.404Z,19.00
2022-10-07T19:03:14.393Z,18.90
2022-10-07T19:05:41.192Z,18.90
2022-10-07T19:08:08.119Z,18.90
2022-10-07T19:10:39.345Z,18.80
2022-10-07T19:13:24.547Z,18.80
2022-10-07T19:15:51.911Z,18.80
2022-10-07T19:18:19.231Z,18.70
2022-10-07T19:20:54.449Z,18.70
2022-10-07T19:23:21.336Z,18.70
2022-10-07T19:25:48.323Z,18.70
2022-10-07T19:28:15.210Z,18.60
2022-10-07T19:30:42.671Z,18.60
2022-10-07T19:33:10.929Z,18.60
2022-10-07T19:35:38.131Z,18.50
2022-10-07T19:38:06.123Z,18.50
2022-10-07T19:40:40.432Z,18.50
2022-10-07T19:43:07.877Z,18.50
2022-10-07T19:45:35.535Z,18.40
2022-10-07T19:48:04.313Z,18.40
2022-10-07T19:50:31.576Z,18.40
2022-10-07T19:53:00.056Z,18.40
2022-10-07T19:55:30.647Z,18.30
2022-10-07T19:57:58.241Z,18.30
2022-10-07T20:00:26.113Z,18.30
2022-10-07T20:02:56.695Z,18.30
2022-10-07T20:05:24.292Z,18.20
2022-10-07T20:07:51.717Z,18.20
2022-10-07T20:10:20.292Z,18.20
2022-10-07T20:12:47.333Z,18.20
2022-10-07T20:15:15.648Z,18.20
2022-10-07T20:17:44.117Z,18.20
2022-10-07T20:20:14.392Z,18.10
2022-10-07T20:22:44.715Z,18.20
2022-10-07T20:25:15.372Z,18.10
2022-10-07T20:27:42.366Z,18.10
2022-10-07T20:30:17.626Z,18.00
2022-10-07T20:32:45.285Z,18.00
2022-10-07T20:35:12.449Z,18.00
2022-10-07T20:37:39.376Z,18.00
2022-10-07T20:40:25.090Z,18.00
2022-10-07T20:42:52.941Z,18.00
2022-10-07T20:45:20.369Z,17.90
2022-10-07T20:47:47.484Z,17.90
2022-10-07T20:50:14.364Z,17.90
2022-10-07T20:52:41.304Z,17.90
2022-10-07T20:55:09.623Z,17.90
2022-10-07T20:57:38.262Z,17.80
2022-10-07T21:00:09.300Z,17.80
2022-10-07T21:02:36.200Z,17.80
2022-10-07T21:05:03.068Z,17.80
2022-10-07T21:07:29.922Z,17.70
2022-10-07T21:09:58.201Z,17.70
2022-10-07T21:12:25.011Z,17.70
2022-10-07T21:14:54.990Z,17.70
2022-10-07T21:17:24.870Z,17.70
2022-10-07T21:19:52.323Z,17.60
2022-10-07T21:22:19.102Z,17.60
2022-10-07T21:24:46.537Z,17.60
2022-10-07T21:27:13.440Z,17.60
2022-10-07T21:29:41.270Z,17.50
2022-10-07T21:32:10.160Z,17.50
2022-10-07T21:34:37.254Z,17.50
2022-10-07T21:37:04.804Z,17.50
2022-10-07T21:39:31.651Z,17.50
2022-10-07T21:41:58.773Z,17.50
2022-10-07T21:44:27.505Z,17.50
2022-10-07T21:46:54.464Z,17.50
2022-10-07T21:49:21.322Z,17.50
2022-10-07T21:51:48.120Z,17.40
2022-10-07T21:54:15.531Z,17.40
2022-10-07T21:56:45.112Z,17.40
2022-10-07T21:59:12.140Z,17.40
2022-10-07T22:01:39.009Z,17.40
2022-10-07T22:04:06.096Z,17.40
2022-10-07T22:06:51.260Z,17.40
2022-10-07T22:09:20.965Z,17.30
2022-10-07T22:11:48.328Z,17.30
2022-10-07T22:14:15.139Z,17.30
2022-10-07T22:16:42.091Z,17.30
2022-10-07T22:19:10.729Z,17.20
2022-10-07T22:21:40.344Z,17.30
2022-10-07T22:24:08.448Z,17.20
2022-10-07T22:26:40.685Z,17.20
2022-10-07T22:29:10.931Z,17.20
2022-10-07T22:31:38.278Z,17.20
2022-10-07T22:34:05.493Z,17.20
2022-10-07T22:36:32.692Z,17.20
2022-10-07T22:38:59.799Z,17.10
2022-10-07T22:41:26.988Z,17.10
2022-10-07T22:43:53.921Z,17.10
2022-10-07T22:46:26.234Z,17.00
2022-10-07T22:48:54.286Z,17.10
2022-10-07T22:51:21.162Z,17.00
2022-10-07T22:53:51.639Z,17.00
2022-10-07T22:56:18.635Z,17.00
2022-10-07T22:58:49.880Z,17.00
2022-10-07T23:01:16.896Z,17.00
2022-10-07T23:03:44.315Z,16.90
2022-10-07T23:06:12.470Z,16.90
2022-10-07T23:08:39.531Z,17.00
2022-10-07T23:11:06.885Z,16.90
2022-10-07T23:13:35.272Z,16.90
2022-10-07T23:16:06.917Z,16.90
2022-10-07T23:18:33.803Z,16.80
2022-10-07T23:21:03.428Z,16.80
2022-10-07T23:23:30.680Z,16.80
2022-10-07T23:25:57.547Z,16.80
2022-10-07T23:28:25.810Z,16.80
2022-10-07T23:30:53.262Z,16.80
2022-10-07T23:33:20.205Z,16.70
2022-10-07T23:35:47.080Z,16.80
2022-10-07T23:38:13.943Z,16.70
2022-10-07T23:40:40.858Z,16.70
2022-10-07T23:43:09.341Z,16.70
2022-10-07T23:45:36.162Z,16.70
2022-10-07T23:48:03.024Z,16.70
2022-10-07T23:50:29.910Z,16.60
2022-10-07T23:52:56.722Z,16.70
2022-10-07T23:55:23.558Z,16.70
2022-10-07T23:57:50.365Z,16.60
